PTRZB SNTI-SWMW
Flight info
| Callsign | PTRZB |
|---|---|
| Flight time | 0h 57m |
| Altitude | 6500 |
| Route | DCT 0200S05601W 0241S05644W 0252S05710W DCT 0308S05733W DCT |
| Aircraft | C208/L-SDFGR/C |
Departure
| Time | 2026-04-24 21:49 |
|---|---|
| Airport | Óbidos Municipal Airport (SNTI) |
Arrival
| Time | 2026-04-24 22:46 |
|---|---|
| Airport | Maués Airport (SWMW) |
| Time | Latitude | Longitude | Altitude | Speed | Heading |
|---|---|---|---|---|---|
| 2026-04-24 21:36 | -1.86920 | -55.51626 | 335 ft | 0 kts | 221° |
| 2026-04-24 21:43 | -1.86908 | -55.51619 | 333 ft | 2 kts | 178° |
| 2026-04-24 21:43 | -1.86899 | -55.51625 | 335 ft | 2 kts | 124° |
| 2026-04-24 21:44 | -1.86897 | -55.51628 | 335 ft | 0 kts | 95° |
| 2026-04-24 21:45 | -1.86892 | -55.51601 | 335 ft | 8 kts | 53° |
| 2026-04-24 21:45 | -1.86838 | -55.51597 | 335 ft | 9 kts | 330° |
| 2026-04-24 21:46 | -1.86828 | -55.51636 | 335 ft | 6 kts | 262° |
| 2026-04-24 21:46 | -1.86835 | -55.51686 | 335 ft | 8 kts | 261° |
| 2026-04-24 21:46 | -1.86845 | -55.51752 | 335 ft | 11 kts | 261° |
| 2026-04-24 21:46 | -1.86857 | -55.51831 | 339 ft | 13 kts | 262° |
| 2026-04-24 21:47 | -1.86871 | -55.51946 | 340 ft | 19 kts | 263° |
| 2026-04-24 21:47 | -1.86885 | -55.52056 | 340 ft | 16 kts | 261° |
| 2026-04-24 21:47 | -1.86902 | -55.52125 | 340 ft | 7 kts | 341° |
| 2026-04-24 21:47 | -1.86893 | -55.52110 | 339 ft | 4 kts | 107° |
| 2026-04-24 21:48 | -1.86892 | -55.52088 | 338 ft | 0 kts | 83° |
| 2026-04-24 21:48 | -1.86891 | -55.52086 | 338 ft | 0 kts | 83° |
| 2026-04-24 21:49 | -1.86849 | -55.51778 | 338 ft | 88 kts | 82° |
| 2026-04-24 21:49 | -1.86746 | -55.51040 | 543 ft | 114 kts | 82° |
| 2026-04-24 21:49 | -1.86639 | -55.50240 | 870 ft | 121 kts | 82° |
| 2026-04-24 21:49 | -1.86644 | -55.49387 | 1176 ft | 130 kts | 110° |
| 2026-04-24 21:50 | -1.87369 | -55.48836 | 1518 ft | 144 kts | 168° |
| 2026-04-24 21:50 | -1.88307 | -55.49144 | 1858 ft | 150 kts | 224° |
| 2026-04-24 21:50 | -1.88773 | -55.50066 | 2212 ft | 149 kts | 251° |
| 2026-04-24 21:50 | -1.89156 | -55.51042 | 2562 ft | 151 kts | 250° |
| 2026-04-24 21:51 | -1.89538 | -55.52016 | 2906 ft | 153 kts | 250° |
| 2026-04-24 21:51 | -1.89939 | -55.53009 | 3244 ft | 154 kts | 250° |
| 2026-04-24 21:51 | -1.90341 | -55.53995 | 3579 ft | 153 kts | 251° |
| 2026-04-24 21:51 | -1.90750 | -55.54976 | 3912 ft | 152 kts | 250° |
| 2026-04-24 21:52 | -1.91162 | -55.55952 | 4251 ft | 152 kts | 250° |
| 2026-04-24 21:52 | -1.91574 | -55.56913 | 4593 ft | 152 kts | 251° |
| 2026-04-24 21:52 | -1.91998 | -55.57883 | 4921 ft | 151 kts | 250° |
| 2026-04-24 21:52 | -1.92424 | -55.58845 | 5255 ft | 151 kts | 250° |
| 2026-04-24 21:53 | -1.92850 | -55.59807 | 5592 ft | 151 kts | 250° |
| 2026-04-24 21:53 | -1.93271 | -55.60774 | 5925 ft | 150 kts | 256° |
| 2026-04-24 21:53 | -1.93315 | -55.61777 | 6268 ft | 144 kts | 279° |
| 2026-04-24 21:53 | -1.93270 | -55.62771 | 6514 ft | 151 kts | 278° |
| 2026-04-24 21:54 | -1.93210 | -55.63882 | 6530 ft | 166 kts | 278° |
| 2026-04-24 21:54 | -1.93136 | -55.65069 | 6531 ft | 174 kts | 278° |
| 2026-04-24 21:54 | -1.93058 | -55.66292 | 6526 ft | 178 kts | 278° |
| 2026-04-24 21:54 | -1.92976 | -55.67540 | 6525 ft | 180 kts | 278° |
| 2026-04-24 21:55 | -1.92892 | -55.68772 | 6528 ft | 180 kts | 278° |
| 2026-04-24 21:55 | -1.92807 | -55.70027 | 6530 ft | 181 kts | 278° |
| 2026-04-24 21:55 | -1.92723 | -55.71289 | 6523 ft | 181 kts | 278° |
| 2026-04-24 21:55 | -1.92628 | -55.72548 | 6527 ft | 181 kts | 279° |
| 2026-04-24 21:56 | -1.92673 | -55.73802 | 6524 ft | 185 kts | 264° |
| 2026-04-24 21:56 | -1.92988 | -55.75052 | 6527 ft | 186 kts | 258° |
| 2026-04-24 21:56 | -1.93333 | -55.76296 | 6522 ft | 185 kts | 259° |
| 2026-04-24 21:56 | -1.93665 | -55.77541 | 6527 ft | 185 kts | 259° |
| 2026-04-24 21:57 | -1.93992 | -55.78784 | 6526 ft | 185 kts | 259° |
| 2026-04-24 21:57 | -1.94319 | -55.80033 | 6519 ft | 185 kts | 259° |
| 2026-04-24 21:57 | -1.94647 | -55.81281 | 6523 ft | 185 kts | 259° |
| 2026-04-24 21:57 | -1.94973 | -55.82523 | 6526 ft | 185 kts | 259° |
| 2026-04-24 21:58 | -1.95299 | -55.83769 | 6524 ft | 185 kts | 259° |
| 2026-04-24 21:58 | -1.95624 | -55.84998 | 6525 ft | 185 kts | 259° |
| 2026-04-24 21:58 | -1.95951 | -55.86245 | 6529 ft | 185 kts | 259° |
| 2026-04-24 21:58 | -1.96275 | -55.87492 | 6522 ft | 185 kts | 259° |
| 2026-04-24 21:59 | -1.96602 | -55.88723 | 6530 ft | 185 kts | 259° |
| 2026-04-24 21:59 | -1.96930 | -55.89974 | 6528 ft | 185 kts | 259° |
| 2026-04-24 21:59 | -1.97258 | -55.91220 | 6527 ft | 185 kts | 259° |
| 2026-04-24 21:59 | -1.97585 | -55.92468 | 6525 ft | 185 kts | 259° |
| 2026-04-24 22:00 | -1.97912 | -55.93712 | 6526 ft | 185 kts | 259° |
| 2026-04-24 22:00 | -1.98234 | -55.94938 | 6524 ft | 185 kts | 259° |
| 2026-04-24 22:00 | -1.98561 | -55.96186 | 6526 ft | 185 kts | 259° |
| 2026-04-24 22:00 | -1.98889 | -55.97432 | 6528 ft | 185 kts | 259° |
| 2026-04-24 22:01 | -1.99215 | -55.98675 | 6526 ft | 185 kts | 259° |
| 2026-04-24 22:01 | -1.99541 | -55.99916 | 6524 ft | 184 kts | 259° |
| 2026-04-24 22:01 | -1.99872 | -56.01138 | 6523 ft | 185 kts | 255° |
| 2026-04-24 22:01 | -2.00547 | -56.02249 | 6516 ft | 189 kts | 230° |
| 2026-04-24 22:02 | -2.01467 | -56.03195 | 6521 ft | 189 kts | 229° |
| 2026-04-24 22:02 | -2.02373 | -56.04151 | 6521 ft | 189 kts | 229° |
| 2026-04-24 22:02 | -2.03274 | -56.05096 | 6524 ft | 189 kts | 229° |
| 2026-04-24 22:02 | -2.04186 | -56.06052 | 6524 ft | 189 kts | 229° |
| 2026-04-24 22:03 | -2.05088 | -56.06998 | 6523 ft | 189 kts | 229° |
| 2026-04-24 22:03 | -2.05999 | -56.07952 | 6521 ft | 189 kts | 229° |
| 2026-04-24 22:03 | -2.06910 | -56.08907 | 6521 ft | 190 kts | 229° |
| 2026-04-24 22:03 | -2.07822 | -56.09863 | 6522 ft | 189 kts | 229° |
| 2026-04-24 22:04 | -2.08737 | -56.10822 | 6520 ft | 190 kts | 229° |
| 2026-04-24 22:04 | -2.09655 | -56.11776 | 6522 ft | 189 kts | 229° |
| 2026-04-24 22:04 | -2.10552 | -56.12725 | 6515 ft | 191 kts | 229° |
| 2026-04-24 22:04 | -2.11469 | -56.13691 | 6513 ft | 190 kts | 229° |
| 2026-04-24 22:05 | -2.12382 | -56.14645 | 6516 ft | 189 kts | 229° |
| 2026-04-24 22:05 | -2.13284 | -56.15588 | 6518 ft | 189 kts | 229° |
| 2026-04-24 22:05 | -2.14192 | -56.16541 | 6516 ft | 189 kts | 229° |
| 2026-04-24 22:05 | -2.15099 | -56.17492 | 6513 ft | 189 kts | 229° |
| 2026-04-24 22:06 | -2.16008 | -56.18444 | 6516 ft | 189 kts | 228° |
| 2026-04-24 22:06 | -2.16905 | -56.19385 | 6515 ft | 189 kts | 228° |
| 2026-04-24 22:06 | -2.17812 | -56.20336 | 6517 ft | 189 kts | 228° |
| 2026-04-24 22:06 | -2.18719 | -56.21287 | 6518 ft | 189 kts | 228° |
| 2026-04-24 22:07 | -2.19626 | -56.22238 | 6520 ft | 189 kts | 228° |
| 2026-04-24 22:07 | -2.20534 | -56.23189 | 6513 ft | 189 kts | 228° |
| 2026-04-24 22:07 | -2.21441 | -56.24141 | 6510 ft | 189 kts | 228° |
| 2026-04-24 22:07 | -2.22340 | -56.25083 | 6512 ft | 188 kts | 228° |
| 2026-04-24 22:08 | -2.23247 | -56.26034 | 6514 ft | 188 kts | 228° |
| 2026-04-24 22:08 | -2.24154 | -56.26985 | 6517 ft | 189 kts | 228° |
| 2026-04-24 22:08 | -2.25060 | -56.27935 | 6515 ft | 188 kts | 228° |
| 2026-04-24 22:08 | -2.25953 | -56.28872 | 6517 ft | 188 kts | 228° |
| 2026-04-24 22:09 | -2.26858 | -56.29820 | 6519 ft | 188 kts | 228° |
| 2026-04-24 22:09 | -2.27762 | -56.30768 | 6517 ft | 188 kts | 228° |
| 2026-04-24 22:09 | -2.28667 | -56.31717 | 6517 ft | 188 kts | 228° |
| 2026-04-24 22:09 | -2.29563 | -56.32657 | 6516 ft | 188 kts | 228° |
| 2026-04-24 22:10 | -2.30468 | -56.33605 | 6516 ft | 188 kts | 228° |
| 2026-04-24 22:10 | -2.31370 | -56.34553 | 6519 ft | 188 kts | 228° |
| 2026-04-24 22:10 | -2.32274 | -56.35499 | 6520 ft | 188 kts | 227° |
| 2026-04-24 22:10 | -2.33177 | -56.36446 | 6520 ft | 188 kts | 228° |
| 2026-04-24 22:11 | -2.34078 | -56.37392 | 6522 ft | 188 kts | 228° |
| 2026-04-24 22:11 | -2.34966 | -56.38324 | 6516 ft | 187 kts | 228° |
| 2026-04-24 22:11 | -2.35868 | -56.39269 | 6516 ft | 187 kts | 228° |
| 2026-04-24 22:11 | -2.36770 | -56.40215 | 6515 ft | 187 kts | 228° |
| 2026-04-24 22:12 | -2.37669 | -56.41159 | 6514 ft | 187 kts | 228° |
| 2026-04-24 22:12 | -2.38570 | -56.42103 | 6517 ft | 187 kts | 228° |
| 2026-04-24 22:12 | -2.39458 | -56.43035 | 6517 ft | 187 kts | 228° |
| 2026-04-24 22:12 | -2.40357 | -56.43978 | 6516 ft | 187 kts | 228° |
| 2026-04-24 22:13 | -2.41254 | -56.44918 | 6517 ft | 187 kts | 227° |
| 2026-04-24 22:13 | -2.42155 | -56.45864 | 6514 ft | 187 kts | 227° |
| 2026-04-24 22:13 | -2.43042 | -56.46793 | 6515 ft | 187 kts | 227° |
| 2026-04-24 22:13 | -2.43941 | -56.47737 | 6514 ft | 187 kts | 227° |
| 2026-04-24 22:14 | -2.44841 | -56.48682 | 6513 ft | 187 kts | 228° |
| 2026-04-24 22:14 | -2.45739 | -56.49623 | 6518 ft | 187 kts | 227° |
| 2026-04-24 22:14 | -2.46637 | -56.50566 | 6517 ft | 187 kts | 227° |
| 2026-04-24 22:14 | -2.47522 | -56.51493 | 6518 ft | 186 kts | 227° |
| 2026-04-24 22:15 | -2.48417 | -56.52433 | 6519 ft | 187 kts | 227° |
| 2026-04-24 22:15 | -2.49315 | -56.53374 | 6518 ft | 187 kts | 227° |
| 2026-04-24 22:15 | -2.50210 | -56.54314 | 6518 ft | 187 kts | 227° |
| 2026-04-24 22:15 | -2.51105 | -56.55252 | 6519 ft | 186 kts | 227° |
| 2026-04-24 22:16 | -2.52004 | -56.56196 | 6522 ft | 187 kts | 227° |
| 2026-04-24 22:16 | -2.52903 | -56.57138 | 6518 ft | 187 kts | 227° |
| 2026-04-24 22:16 | -2.53802 | -56.58082 | 6517 ft | 187 kts | 227° |
| 2026-04-24 22:16 | -2.54687 | -56.59012 | 6518 ft | 186 kts | 227° |
| 2026-04-24 22:17 | -2.55583 | -56.59950 | 6518 ft | 186 kts | 227° |
| 2026-04-24 22:17 | -2.56475 | -56.60887 | 6518 ft | 186 kts | 227° |
| 2026-04-24 22:17 | -2.57370 | -56.61826 | 6518 ft | 186 kts | 227° |
| 2026-04-24 22:17 | -2.58266 | -56.62766 | 6518 ft | 186 kts | 227° |
| 2026-04-24 22:18 | -2.59157 | -56.63702 | 6517 ft | 186 kts | 227° |
| 2026-04-24 22:18 | -2.60037 | -56.64623 | 6520 ft | 185 kts | 227° |
| 2026-04-24 22:18 | -2.60930 | -56.65558 | 6518 ft | 186 kts | 227° |
| 2026-04-24 22:18 | -2.61836 | -56.66511 | 6537 ft | 190 kts | 227° |
| 2026-04-24 22:19 | -2.62749 | -56.67474 | 6527 ft | 190 kts | 227° |
| 2026-04-24 22:19 | -2.63642 | -56.68410 | 6524 ft | 187 kts | 226° |
| 2026-04-24 22:19 | -2.64544 | -56.69353 | 6527 ft | 190 kts | 227° |
| 2026-04-24 22:19 | -2.65454 | -56.70313 | 6527 ft | 188 kts | 227° |
| 2026-04-24 22:20 | -2.66365 | -56.71264 | 6530 ft | 190 kts | 227° |
| 2026-04-24 22:20 | -2.66971 | -56.71900 | 6528 ft | 190 kts | 227° |
| 2026-04-24 22:20 | -2.67877 | -56.72858 | 6525 ft | 188 kts | 227° |
| 2026-04-24 22:20 | -2.68746 | -56.74316 | 6515 ft | 184 kts | 250° |
| 2026-04-24 22:21 | -2.69073 | -56.75119 | 6516 ft | 184 kts | 248° |
| 2026-04-24 22:21 | -2.69586 | -56.76296 | 6517 ft | 185 kts | 248° |
| 2026-04-24 22:21 | -2.70084 | -56.77465 | 6520 ft | 185 kts | 248° |
| 2026-04-24 22:21 | -2.70590 | -56.78659 | 6522 ft | 187 kts | 248° |
| 2026-04-24 22:22 | -2.71099 | -56.79864 | 6524 ft | 187 kts | 248° |
| 2026-04-24 22:22 | -2.71606 | -56.81063 | 6520 ft | 186 kts | 248° |
| 2026-04-24 22:22 | -2.72102 | -56.82240 | 6520 ft | 185 kts | 248° |
| 2026-04-24 22:22 | -2.72607 | -56.83434 | 6521 ft | 187 kts | 248° |
| 2026-04-24 22:23 | -2.73117 | -56.84633 | 6516 ft | 186 kts | 248° |
| 2026-04-24 22:23 | -2.73622 | -56.85827 | 6525 ft | 187 kts | 248° |
| 2026-04-24 22:23 | -2.74124 | -56.87011 | 6522 ft | 186 kts | 248° |
| 2026-04-24 22:23 | -2.74631 | -56.88211 | 6524 ft | 187 kts | 248° |
| 2026-04-24 22:24 | -2.75139 | -56.89408 | 6520 ft | 186 kts | 248° |
| 2026-04-24 22:24 | -2.75640 | -56.90599 | 6520 ft | 185 kts | 248° |
| 2026-04-24 22:24 | -2.76143 | -56.91784 | 6520 ft | 185 kts | 248° |
| 2026-04-24 22:24 | -2.76645 | -56.92974 | 6518 ft | 186 kts | 248° |
| 2026-04-24 22:25 | -2.77146 | -56.94149 | 6522 ft | 186 kts | 248° |
| 2026-04-24 22:25 | -2.77650 | -56.95348 | 6519 ft | 187 kts | 248° |
| 2026-04-24 22:25 | -2.78155 | -56.96541 | 6518 ft | 185 kts | 248° |
| 2026-04-24 22:25 | -2.78656 | -56.97727 | 6524 ft | 185 kts | 248° |
| 2026-04-24 22:26 | -2.79164 | -56.98925 | 6520 ft | 186 kts | 248° |
| 2026-04-24 22:26 | -2.79669 | -57.00118 | 6520 ft | 186 kts | 248° |
| 2026-04-24 22:26 | -2.80166 | -57.01299 | 6522 ft | 186 kts | 248° |
| 2026-04-24 22:26 | -2.80673 | -57.02493 | 6519 ft | 186 kts | 248° |
| 2026-04-24 22:27 | -2.81177 | -57.03683 | 6522 ft | 185 kts | 248° |
| 2026-04-24 22:27 | -2.81679 | -57.04869 | 6523 ft | 185 kts | 248° |
| 2026-04-24 22:27 | -2.82175 | -57.06042 | 6516 ft | 185 kts | 248° |
| 2026-04-24 22:27 | -2.82678 | -57.07235 | 6519 ft | 186 kts | 248° |
| 2026-04-24 22:28 | -2.83182 | -57.08422 | 6517 ft | 185 kts | 248° |
| 2026-04-24 22:28 | -2.83686 | -57.09614 | 6513 ft | 186 kts | 248° |
| 2026-04-24 22:28 | -2.84184 | -57.10792 | 6520 ft | 185 kts | 248° |
| 2026-04-24 22:28 | -2.84687 | -57.11982 | 6518 ft | 185 kts | 248° |
| 2026-04-24 22:29 | -2.85687 | -57.14349 | 6517 ft | 185 kts | 248° |
| 2026-04-24 22:29 | -2.86192 | -57.15541 | 6517 ft | 185 kts | 248° |
| 2026-04-24 22:29 | -2.86711 | -57.16724 | 6522 ft | 185 kts | 242° |
| 2026-04-24 22:30 | -2.87443 | -57.17782 | 6517 ft | 185 kts | 234° |
| 2026-04-24 22:30 | -2.88175 | -57.18824 | 6517 ft | 185 kts | 236° |
| 2026-04-24 22:30 | -2.88911 | -57.19888 | 6523 ft | 186 kts | 235° |
| 2026-04-24 22:30 | -2.89652 | -57.20954 | 6515 ft | 186 kts | 235° |
| 2026-04-24 22:31 | -2.90380 | -57.22001 | 6519 ft | 186 kts | 235° |
| 2026-04-24 22:31 | -2.91123 | -57.23068 | 6521 ft | 186 kts | 235° |
| 2026-04-24 22:31 | -2.91865 | -57.24129 | 6523 ft | 185 kts | 235° |
| 2026-04-24 22:31 | -2.92592 | -57.25177 | 6522 ft | 185 kts | 236° |
| 2026-04-24 22:32 | -2.93330 | -57.26242 | 6523 ft | 185 kts | 235° |
| 2026-04-24 22:32 | -2.94067 | -57.27301 | 6521 ft | 185 kts | 235° |
| 2026-04-24 22:32 | -2.94804 | -57.28358 | 6521 ft | 185 kts | 235° |
| 2026-04-24 22:32 | -2.95532 | -57.29404 | 6523 ft | 185 kts | 235° |
| 2026-04-24 22:33 | -2.96270 | -57.30465 | 6521 ft | 185 kts | 235° |
| 2026-04-24 22:33 | -2.96999 | -57.31513 | 6521 ft | 185 kts | 235° |
| 2026-04-24 22:33 | -2.97734 | -57.32570 | 6521 ft | 185 kts | 235° |
| 2026-04-24 22:33 | -2.98471 | -57.33628 | 6521 ft | 185 kts | 235° |
| 2026-04-24 22:34 | -2.99207 | -57.34687 | 6521 ft | 185 kts | 235° |
| 2026-04-24 22:34 | -2.99943 | -57.35744 | 6520 ft | 185 kts | 235° |
| 2026-04-24 22:34 | -3.00669 | -57.36789 | 6520 ft | 185 kts | 235° |
| 2026-04-24 22:34 | -3.01405 | -57.37847 | 6521 ft | 185 kts | 235° |
| 2026-04-24 22:35 | -3.02141 | -57.38905 | 6520 ft | 185 kts | 235° |
| 2026-04-24 22:35 | -3.02868 | -57.39950 | 6521 ft | 185 kts | 235° |
| 2026-04-24 22:35 | -3.03604 | -57.41008 | 6519 ft | 185 kts | 235° |
| 2026-04-24 22:35 | -3.04340 | -57.42065 | 6521 ft | 185 kts | 235° |
| 2026-04-24 22:36 | -3.05073 | -57.43121 | 6520 ft | 185 kts | 235° |
| 2026-04-24 22:36 | -3.05808 | -57.44176 | 6519 ft | 185 kts | 235° |
| 2026-04-24 22:36 | -3.06543 | -57.45233 | 6518 ft | 185 kts | 235° |
| 2026-04-24 22:36 | -3.07279 | -57.46292 | 6521 ft | 185 kts | 235° |
| 2026-04-24 22:37 | -3.08013 | -57.47347 | 6521 ft | 185 kts | 235° |
| 2026-04-24 22:37 | -3.08748 | -57.48404 | 6520 ft | 185 kts | 235° |
| 2026-04-24 22:37 | -3.09473 | -57.49447 | 6520 ft | 185 kts | 235° |
| 2026-04-24 22:37 | -3.10208 | -57.50504 | 6520 ft | 185 kts | 235° |
| 2026-04-24 22:38 | -3.10945 | -57.51564 | 6518 ft | 185 kts | 235° |
| 2026-04-24 22:38 | -3.11682 | -57.52624 | 6520 ft | 185 kts | 235° |
| 2026-04-24 22:38 | -3.12410 | -57.53669 | 6523 ft | 185 kts | 235° |
| 2026-04-24 22:38 | -3.13148 | -57.54726 | 6523 ft | 184 kts | 233° |
| 2026-04-24 22:39 | -3.14094 | -57.55574 | 6521 ft | 183 kts | 214° |
| 2026-04-24 22:39 | -3.15110 | -57.56320 | 6502 ft | 171 kts | 217° |
| 2026-04-24 22:39 | -3.16044 | -57.57031 | 6149 ft | 167 kts | 217° |
| 2026-04-24 22:39 | -3.16970 | -57.57728 | 5798 ft | 165 kts | 217° |
| 2026-04-24 22:40 | -3.17888 | -57.58418 | 5454 ft | 164 kts | 216° |
| 2026-04-24 22:40 | -3.18786 | -57.59092 | 5120 ft | 163 kts | 216° |
| 2026-04-24 22:40 | -3.19689 | -57.59770 | 4786 ft | 161 kts | 217° |
| 2026-04-24 22:40 | -3.20590 | -57.60446 | 4445 ft | 161 kts | 217° |
| 2026-04-24 22:41 | -3.21484 | -57.61117 | 4101 ft | 160 kts | 217° |
| 2026-04-24 22:41 | -3.22364 | -57.61778 | 3767 ft | 160 kts | 217° |
| 2026-04-24 22:41 | -3.23254 | -57.62446 | 3426 ft | 159 kts | 217° |
| 2026-04-24 22:41 | -3.24140 | -57.63112 | 3098 ft | 159 kts | 217° |
| 2026-04-24 22:42 | -3.25026 | -57.63777 | 2755 ft | 158 kts | 217° |
| 2026-04-24 22:42 | -3.25899 | -57.64432 | 2532 ft | 151 kts | 217° |
| 2026-04-24 22:42 | -3.26696 | -57.65031 | 2516 ft | 136 kts | 217° |
| 2026-04-24 22:42 | -3.27426 | -57.65579 | 2511 ft | 127 kts | 217° |
| 2026-04-24 22:43 | -3.28108 | -57.66091 | 2519 ft | 123 kts | 217° |
| 2026-04-24 22:43 | -3.28828 | -57.66631 | 2531 ft | 135 kts | 217° |
| 2026-04-24 22:43 | -3.29600 | -57.67212 | 2536 ft | 142 kts | 217° |
| 2026-04-24 22:43 | -3.30241 | -57.67965 | 2535 ft | 146 kts | 248° |
| 2026-04-24 22:44 | -3.30517 | -57.68942 | 2535 ft | 146 kts | 255° |
| 2026-04-24 22:44 | -3.30804 | -57.69927 | 2453 ft | 151 kts | 255° |
| 2026-04-24 22:44 | -3.31091 | -57.70919 | 2190 ft | 147 kts | 252° |
| 2026-04-24 22:44 | -3.31655 | -57.71757 | 1854 ft | 151 kts | 221° |
| 2026-04-24 22:45 | -3.32547 | -57.72203 | 1505 ft | 126 kts | 192° |
| 2026-04-24 22:45 | -3.33346 | -57.72215 | 1121 ft | 110 kts | 169° |
| 2026-04-24 22:45 | -3.34082 | -57.72094 | 741 ft | 107 kts | 176° |
| 2026-04-24 22:45 | -3.34819 | -57.72187 | 364 ft | 108 kts | 183° |
| 2026-04-24 22:46 | -3.35503 | -57.72438 | 372 ft | 101 kts | 203° |
| 2026-04-24 22:46 | -3.36153 | -57.72585 | 231 ft | 95 kts | 181° |
| 2026-04-24 22:46 | -3.36728 | -57.72532 | 99 ft | 70 kts | 173° |
| 2026-04-24 22:46 | -3.37079 | -57.72495 | 75 ft | 37 kts | 174° |
| 2026-04-24 22:47 | -3.37303 | -57.72467 | 76 ft | 27 kts | 172° |
| 2026-04-24 22:47 | -3.37438 | -57.72442 | 72 ft | 9 kts | 144° |
| 2026-04-24 22:47 | -3.37454 | -57.72415 | 75 ft | 0 kts | 101° |
| 2026-04-24 22:47 | -3.37456 | -57.72399 | 70 ft | 0 kts | 76° |